sensor_id;sensor_type;location;lat;lon;timestamp;temperature;humidity
20759;DHT22;10539;53.686;9.158;2023-01-09T00:00:44;6.70;99.90
20759;DHT22;10539;53.686;9.158;2023-01-09T00:03:10;6.70;99.90
20759;DHT22;10539;53.686;9.158;2023-01-09T00:05:35;6.70;99.90
20759;DHT22;10539;53.686;9.158;2023-01-09T00:08:01;6.70;99.90
20759;DHT22;10539;53.686;9.158;2023-01-09T00:10:27;6.70;99.90
20759;DHT22;10539;53.686;9.158;2023-01-09T00:12:53;6.70;99.90
20759;DHT22;10539;53.686;9.158;2023-01-09T00:15:19;6.70;99.90
20759;DHT22;10539;53.686;9.158;2023-01-09T00:17:45;6.70;99.90
20759;DHT22;10539;53.686;9.158;2023-01-09T00:20:12;6.70;99.90
20759;DHT22;10539;53.686;9.158;2023-01-09T00:22:38;6.70;99.90
20759;DHT22;10539;53.686;9.158;2023-01-09T00:25:05;6.70;99.90
20759;DHT22;10539;53.686;9.158;2023-01-09T00:27:32;6.70;99.90
20759;DHT22;10539;53.686;9.158;2023-01-09T00:29:58;6.70;99.90
20759;DHT22;10539;53.686;9.158;2023-01-09T00:32:25;6.70;99.90
20759;DHT22;10539;53.686;9.158;2023-01-09T00:34:51;6.70;99.90
20759;DHT22;10539;53.686;9.158;2023-01-09T00:37:17;6.70;99.90
20759;DHT22;10539;53.686;9.158;2023-01-09T00:39:43;6.70;99.90
20759;DHT22;10539;53.686;9.158;2023-01-09T00:42:18;6.70;99.90
20759;DHT22;10539;53.686;9.158;2023-01-09T00:44:48;6.70;99.90
20759;DHT22;10539;53.686;9.158;2023-01-09T00:47:24;6.60;99.90
20759;DHT22;10539;53.686;9.158;2023-01-09T00:49:52;6.60;99.90
20759;DHT22;10539;53.686;9.158;2023-01-09T00:52:20;6.60;99.90
20759;DHT22;10539;53.686;9.158;2023-01-09T00:54:47;6.60;99.90
20759;DHT22;10539;53.686;9.158;2023-01-09T00:57:13;6.60;99.90
20759;DHT22;10539;53.686;9.158;2023-01-09T00:59:40;6.60;99.90
20759;DHT22;10539;53.686;9.158;2023-01-09T01:02:07;6.60;99.90
20759;DHT22;10539;53.686;9.158;2023-01-09T01:04:32;6.60;99.90
20759;DHT22;10539;53.686;9.158;2023-01-09T01:07:18;6.60;99.90
20759;DHT22;10539;53.686;9.158;2023-01-09T01:10:05;6.60;99.90
20759;DHT22;10539;53.686;9.158;2023-01-09T01:12:31;6.60;99.90
20759;DHT22;10539;53.686;9.158;2023-01-09T01:14:57;6.60;99.90
20759;DHT22;10539;53.686;9.158;2023-01-09T01:17:22;6.60;99.90
20759;DHT22;10539;53.686;9.158;2023-01-09T01:19:48;6.60;99.90
20759;DHT22;10539;53.686;9.158;2023-01-09T01:22:13;6.70;99.90
20759;DHT22;10539;53.686;9.158;2023-01-09T01:24:39;6.70;99.90
20759;DHT22;10539;53.686;9.158;2023-01-09T01:27:05;6.80;99.90
20759;DHT22;10539;53.686;9.158;2023-01-09T01:29:31;6.90;99.90
20759;DHT22;10539;53.686;9.158;2023-01-09T01:31:57;6.90;99.90
20759;DHT22;10539;53.686;9.158;2023-01-09T01:34:23;6.90;99.90
20759;DHT22;10539;53.686;9.158;2023-01-09T01:36:49;6.90;99.90
20759;DHT22;10539;53.686;9.158;2023-01-09T01:39:15;6.90;99.90
20759;DHT22;10539;53.686;9.158;2023-01-09T01:41:41;6.90;99.90
20759;DHT22;10539;53.686;9.158;2023-01-09T01:47:12;7.00;99.90
20759;DHT22;10539;53.686;9.158;2023-01-09T01:49:38;7.00;99.90
20759;DHT22;10539;53.686;9.158;2023-01-09T01:52:04;7.00;99.90
20759;DHT22;10539;53.686;9.158;2023-01-09T01:54:30;7.00;99.90
20759;DHT22;10539;53.686;9.158;2023-01-09T01:56:59;7.10;99.90
20759;DHT22;10539;53.686;9.158;2023-01-09T01:59:33;7.10;99.90
20759;DHT22;10539;53.686;9.158;2023-01-09T02:02:01;7.10;99.90
20759;DHT22;10539;53.686;9.158;2023-01-09T02:04:28;7.10;99.90
20759;DHT22;10539;53.686;9.158;2023-01-09T02:06:55;7.10;99.90
20759;DHT22;10539;53.686;9.158;2023-01-09T02:09:22;7.20;99.90
20759;DHT22;10539;53.686;9.158;2023-01-09T02:11:51;7.20;99.90
20759;DHT22;10539;53.686;9.158;2023-01-09T02:14:19;7.30;99.90
20759;DHT22;10539;53.686;9.158;2023-01-09T02:20:15;7.30;99.90
20759;DHT22;10539;53.686;9.158;2023-01-09T02:23:16;7.40;99.90
20759;DHT22;10539;53.686;9.158;2023-01-09T02:26:11;7.40;99.90
20759;DHT22;10539;53.686;9.158;2023-01-09T02:34:14;7.50;99.90
20759;DHT22;10539;53.686;9.158;2023-01-09T02:39:15;7.50;99.90
20759;DHT22;10539;53.686;9.158;2023-01-09T02:44:35;7.60;99.90
20759;DHT22;10539;53.686;9.158;2023-01-09T02:47:07;7.60;99.90
20759;DHT22;10539;53.686;9.158;2023-01-09T02:49:35;7.60;99.90
20759;DHT22;10539;53.686;9.158;2023-01-09T02:52:28;7.60;99.90
20759;DHT22;10539;53.686;9.158;2023-01-09T02:58:00;7.50;99.90
20759;DHT22;10539;53.686;9.158;2023-01-09T03:03:20;7.50;99.90
20759;DHT22;10539;53.686;9.158;2023-01-09T03:05:55;7.50;99.90
20759;DHT22;10539;53.686;9.158;2023-01-09T03:08:28;7.60;99.90
20759;DHT22;10539;53.686;9.158;2023-01-09T03:11:01;7.60;99.90
20759;DHT22;10539;53.686;9.158;2023-01-09T03:13:42;7.60;99.90
20759;DHT22;10539;53.686;9.158;2023-01-09T03:16:11;7.60;99.90
20759;DHT22;10539;53.686;9.158;2023-01-09T03:18:38;7.60;99.90
20759;DHT22;10539;53.686;9.158;2023-01-09T03:21:06;7.60;99.90
20759;DHT22;10539;53.686;9.158;2023-01-09T03:23:49;7.70;99.90
20759;DHT22;10539;53.686;9.158;2023-01-09T03:26:16;7.70;99.90
20759;DHT22;10539;53.686;9.158;2023-01-09T03:28:42;7.70;99.90
20759;DHT22;10539;53.686;9.158;2023-01-09T03:31:08;7.70;99.90
20759;DHT22;10539;53.686;9.158;2023-01-09T03:33:34;7.70;99.90
20759;DHT22;10539;53.686;9.158;2023-01-09T03:36:00;7.70;99.90
20759;DHT22;10539;53.686;9.158;2023-01-09T03:38:26;7.80;99.90
20759;DHT22;10539;53.686;9.158;2023-01-09T03:40:52;7.80;99.90
20759;DHT22;10539;53.686;9.158;2023-01-09T03:43:17;7.80;99.90
20759;DHT22;10539;53.686;9.158;2023-01-09T03:45:43;7.80;99.90
20759;DHT22;10539;53.686;9.158;2023-01-09T03:48:09;7.80;99.90
20759;DHT22;10539;53.686;9.158;2023-01-09T03:50:35;7.80;99.90
20759;DHT22;10539;53.686;9.158;2023-01-09T03:53:00;7.90;99.90
20759;DHT22;10539;53.686;9.158;2023-01-09T03:55:26;7.90;99.90
20759;DHT22;10539;53.686;9.158;2023-01-09T03:57:52;7.90;99.90
20759;DHT22;10539;53.686;9.158;2023-01-09T04:00:19;7.90;99.90
20759;DHT22;10539;53.686;9.158;2023-01-09T04:02:45;7.90;99.90
20759;DHT22;10539;53.686;9.158;2023-01-09T04:05:11;7.90;99.90
20759;DHT22;10539;53.686;9.158;2023-01-09T04:07:37;7.90;99.90
20759;DHT22;10539;53.686;9.158;2023-01-09T04:10:03;8.00;99.90
20759;DHT22;10539;53.686;9.158;2023-01-09T04:12:30;8.00;99.90
20759;DHT22;10539;53.686;9.158;2023-01-09T04:14:56;8.00;99.90
20759;DHT22;10539;53.686;9.158;2023-01-09T04:17:22;8.00;99.90
20759;DHT22;10539;53.686;9.158;2023-01-09T04:19:47;8.00;99.90
20759;DHT22;10539;53.686;9.158;2023-01-09T04:22:13;8.00;99.90
20759;DHT22;10539;53.686;9.158;2023-01-09T04:24:39;8.10;99.90
20759;DHT22;10539;53.686;9.158;2023-01-09T04:27:04;8.10;99.90
20759;DHT22;10539;53.686;9.158;2023-01-09T04:29:30;8.10;99.90
20759;DHT22;10539;53.686;9.158;2023-01-09T04:31:56;8.10;99.90
20759;DHT22;10539;53.686;9.158;2023-01-09T04:34:22;8.10;99.90
20759;DHT22;10539;53.686;9.158;2023-01-09T04:36:50;8.10;99.90
20759;DHT22;10539;53.686;9.158;2023-01-09T04:39:16;8.10;99.90
20759;DHT22;10539;53.686;9.158;2023-01-09T04:41:42;8.10;99.90
20759;DHT22;10539;53.686;9.158;2023-01-09T04:44:18;8.10;99.90
20759;DHT22;10539;53.686;9.158;2023-01-09T04:46:44;8.10;99.90
20759;DHT22;10539;53.686;9.158;2023-01-09T04:49:10;8.10;99.90
20759;DHT22;10539;53.686;9.158;2023-01-09T04:51:36;8.10;99.90
20759;DHT22;10539;53.686;9.158;2023-01-09T04:54:02;8.10;99.90
20759;DHT22;10539;53.686;9.158;2023-01-09T04:56:28;8.10;99.90
20759;DHT22;10539;53.686;9.158;2023-01-09T04:58:53;8.10;99.90
20759;DHT22;10539;53.686;9.158;2023-01-09T05:01:19;8.10;99.90
20759;DHT22;10539;53.686;9.158;2023-01-09T05:03:45;8.20;99.90
20759;DHT22;10539;53.686;9.158;2023-01-09T05:06:11;8.20;99.90
20759;DHT22;10539;53.686;9.158;2023-01-09T05:08:36;8.20;99.90
20759;DHT22;10539;53.686;9.158;2023-01-09T05:11:02;8.20;99.90
20759;DHT22;10539;53.686;9.158;2023-01-09T05:13:28;8.20;99.90
20759;DHT22;10539;53.686;9.158;2023-01-09T05:15:54;8.20;99.90
20759;DHT22;10539;53.686;9.158;2023-01-09T05:18:20;8.20;99.90
20759;DHT22;10539;53.686;9.158;2023-01-09T05:20:46;8.30;99.90
20759;DHT22;10539;53.686;9.158;2023-01-09T05:23:11;8.30;99.90
20759;DHT22;10539;53.686;9.158;2023-01-09T05:25:37;8.30;99.90
20759;DHT22;10539;53.686;9.158;2023-01-09T05:28:03;8.40;99.90
20759;DHT22;10539;53.686;9.158;2023-01-09T05:30:28;8.40;99.90
20759;DHT22;10539;53.686;9.158;2023-01-09T05:32:55;8.40;99.90
20759;DHT22;10539;53.686;9.158;2023-01-09T05:35:21;8.40;99.90
20759;DHT22;10539;53.686;9.158;2023-01-09T05:37:46;8.40;99.90
20759;DHT22;10539;53.686;9.158;2023-01-09T05:40:12;8.40;99.90
20759;DHT22;10539;53.686;9.158;2023-01-09T05:42:38;8.30;99.90
20759;DHT22;10539;53.686;9.158;2023-01-09T05:45:05;8.30;99.90
20759;DHT22;10539;53.686;9.158;2023-01-09T05:47:31;8.30;99.90
20759;DHT22;10539;53.686;9.158;2023-01-09T05:49:57;8.20;99.90
20759;DHT22;10539;53.686;9.158;2023-01-09T05:52:23;8.20;99.90
20759;DHT22;10539;53.686;9.158;2023-01-09T05:54:49;8.20;99.90
20759;DHT22;10539;53.686;9.158;2023-01-09T05:57:15;8.20;99.90
20759;DHT22;10539;53.686;9.158;2023-01-09T05:59:41;8.10;99.90
20759;DHT22;10539;53.686;9.158;2023-01-09T06:02:07;8.10;99.90
20759;DHT22;10539;53.686;9.158;2023-01-09T06:04:33;8.10;99.90
20759;DHT22;10539;53.686;9.158;2023-01-09T06:06:59;8.00;99.90
20759;DHT22;10539;53.686;9.158;2023-01-09T06:09:25;7.90;99.90
20759;DHT22;10539;53.686;9.158;2023-01-09T06:11:50;7.90;99.90
20759;DHT22;10539;53.686;9.158;2023-01-09T06:14:16;7.90;99.90
20759;DHT22;10539;53.686;9.158;2023-01-09T06:16:42;7.80;99.90
20759;DHT22;10539;53.686;9.158;2023-01-09T06:19:08;7.80;99.90
20759;DHT22;10539;53.686;9.158;2023-01-09T06:21:34;7.80;99.90
20759;DHT22;10539;53.686;9.158;2023-01-09T06:24:00;7.70;99.90
20759;DHT22;10539;53.686;9.158;2023-01-09T06:26:25;7.70;99.90
20759;DHT22;10539;53.686;9.158;2023-01-09T06:28:51;7.70;99.90
20759;DHT22;10539;53.686;9.158;2023-01-09T06:31:23;7.70;99.90
20759;DHT22;10539;53.686;9.158;2023-01-09T06:33:50;7.80;99.90
20759;DHT22;10539;53.686;9.158;2023-01-09T06:36:15;7.80;99.90
20759;DHT22;10539;53.686;9.158;2023-01-09T06:38:41;7.80;99.90
20759;DHT22;10539;53.686;9.158;2023-01-09T06:41:07;7.80;99.90
20759;DHT22;10539;53.686;9.158;2023-01-09T06:43:33;7.80;99.90
20759;DHT22;10539;53.686;9.158;2023-01-09T06:45:59;7.80;99.90
20759;DHT22;10539;53.686;9.158;2023-01-09T06:48:25;7.80;99.90
20759;DHT22;10539;53.686;9.158;2023-01-09T06:50:51;7.70;99.90
20759;DHT22;10539;53.686;9.158;2023-01-09T06:53:18;7.70;99.90
20759;DHT22;10539;53.686;9.158;2023-01-09T06:55:44;7.70;99.90
20759;DHT22;10539;53.686;9.158;2023-01-09T06:58:10;7.60;99.90
20759;DHT22;10539;53.686;9.158;2023-01-09T07:00:36;7.60;99.90
20759;DHT22;10539;53.686;9.158;2023-01-09T07:03:02;7.60;99.90
20759;DHT22;10539;53.686;9.158;2023-01-09T07:05:28;7.50;99.90
20759;DHT22;10539;53.686;9.158;2023-01-09T07:07:54;7.50;99.90
20759;DHT22;10539;53.686;9.158;2023-01-09T07:10:22;7.50;99.90
20759;DHT22;10539;53.686;9.158;2023-01-09T07:12:47;7.40;99.90
20759;DHT22;10539;53.686;9.158;2023-01-09T07:15:13;7.40;99.90
20759;DHT22;10539;53.686;9.158;2023-01-09T07:17:39;7.40;99.90
20759;DHT22;10539;53.686;9.158;2023-01-09T07:20:06;7.40;99.90
20759;DHT22;10539;53.686;9.158;2023-01-09T07:22:31;7.40;99.90
20759;DHT22;10539;53.686;9.158;2023-01-09T07:24:57;7.40;99.90
20759;DHT22;10539;53.686;9.158;2023-01-09T07:27:23;7.40;99.90
20759;DHT22;10539;53.686;9.158;2023-01-09T07:29:48;7.40;99.90
20759;DHT22;10539;53.686;9.158;2023-01-09T07:32:16;7.40;99.90
20759;DHT22;10539;53.686;9.158;2023-01-09T07:34:41;7.40;99.90
20759;DHT22;10539;53.686;9.158;2023-01-09T07:37:07;7.30;99.90
20759;DHT22;10539;53.686;9.158;2023-01-09T07:39:33;7.30;99.90
20759;DHT22;10539;53.686;9.158;2023-01-09T07:41:59;7.30;99.90
20759;DHT22;10539;53.686;9.158;2023-01-09T07:44:25;7.30;99.90
20759;DHT22;10539;53.686;9.158;2023-01-09T07:46:50;7.30;99.90
20759;DHT22;10539;53.686;9.158;2023-01-09T07:49:16;7.30;99.90
20759;DHT22;10539;53.686;9.158;2023-01-09T07:51:42;7.30;99.90
20759;DHT22;10539;53.686;9.158;2023-01-09T07:54:10;7.30;99.90
20759;DHT22;10539;53.686;9.158;2023-01-09T07:56:38;7.30;99.90
20759;DHT22;10539;53.686;9.158;2023-01-09T07:59:03;7.20;99.90
20759;DHT22;10539;53.686;9.158;2023-01-09T08:01:29;7.20;99.90
20759;DHT22;10539;53.686;9.158;2023-01-09T08:03:55;7.20;99.90
20759;DHT22;10539;53.686;9.158;2023-01-09T08:06:21;7.20;99.90
20759;DHT22;10539;53.686;9.158;2023-01-09T08:08:47;7.10;99.90
20759;DHT22;10539;53.686;9.158;2023-01-09T08:11:14;7.10;99.90
20759;DHT22;10539;53.686;9.158;2023-01-09T08:13:40;7.10;99.90
20759;DHT22;10539;53.686;9.158;2023-01-09T08:16:06;7.00;99.90
20759;DHT22;10539;53.686;9.158;2023-01-09T08:18:32;7.00;99.90
20759;DHT22;10539;53.686;9.158;2023-01-09T08:20:58;7.00;99.90
20759;DHT22;10539;53.686;9.158;2023-01-09T08:23:23;7.00;99.90
20759;DHT22;10539;53.686;9.158;2023-01-09T08:25:49;7.10;99.90
20759;DHT22;10539;53.686;9.158;2023-01-09T08:28:15;7.10;99.90
20759;DHT22;10539;53.686;9.158;2023-01-09T08:30:41;7.10;99.90
20759;DHT22;10539;53.686;9.158;2023-01-09T08:33:07;7.10;99.90
20759;DHT22;10539;53.686;9.158;2023-01-09T08:35:33;7.20;99.90
20759;DHT22;10539;53.686;9.158;2023-01-09T08:37:59;7.20;99.90
20759;DHT22;10539;53.686;9.158;2023-01-09T08:40:25;7.20;99.90
20759;DHT22;10539;53.686;9.158;2023-01-09T08:42:51;7.20;99.90
20759;DHT22;10539;53.686;9.158;2023-01-09T08:45:35;7.20;99.90
20759;DHT22;10539;53.686;9.158;2023-01-09T08:48:20;7.20;99.90
20759;DHT22;10539;53.686;9.158;2023-01-09T08:50:45;7.20;99.90
20759;DHT22;10539;53.686;9.158;2023-01-09T08:53:11;7.30;99.90
20759;DHT22;10539;53.686;9.158;2023-01-09T08:55:37;7.30;99.90
20759;DHT22;10539;53.686;9.158;2023-01-09T08:58:03;7.30;99.90
20759;DHT22;10539;53.686;9.158;2023-01-09T09:00:28;7.30;99.90
20759;DHT22;10539;53.686;9.158;2023-01-09T09:02:56;7.20;99.90
20759;DHT22;10539;53.686;9.158;2023-01-09T09:05:23;7.20;99.90
20759;DHT22;10539;53.686;9.158;2023-01-09T09:07:51;7.30;99.90
20759;DHT22;10539;53.686;9.158;2023-01-09T09:10:20;7.20;99.90
20759;DHT22;10539;53.686;9.158;2023-01-09T09:12:51;7.20;99.90
20759;DHT22;10539;53.686;9.158;2023-01-09T09:15:17;7.20;99.90
20759;DHT22;10539;53.686;9.158;2023-01-09T09:17:50;7.20;99.90
20759;DHT22;10539;53.686;9.158;2023-01-09T09:20:18;7.20;99.90
20759;DHT22;10539;53.686;9.158;2023-01-09T09:22:45;7.20;99.90
20759;DHT22;10539;53.686;9.158;2023-01-09T09:25:11;7.20;99.90
20759;DHT22;10539;53.686;9.158;2023-01-09T09:27:37;7.20;99.90
20759;DHT22;10539;53.686;9.158;2023-01-09T09:30:03;7.20;99.90
20759;DHT22;10539;53.686;9.158;2023-01-09T09:32:30;7.30;99.90
20759;DHT22;10539;53.686;9.158;2023-01-09T09:34:56;7.30;99.90
20759;DHT22;10539;53.686;9.158;2023-01-09T09:37:22;7.20;99.90
20759;DHT22;10539;53.686;9.158;2023-01-09T09:39:48;7.30;99.90
20759;DHT22;10539;53.686;9.158;2023-01-09T09:46:18;7.30;99.90
20759;DHT22;10539;53.686;9.158;2023-01-09T09:48:47;7.30;99.90
20759;DHT22;10539;53.686;9.158;2023-01-09T09:53:58;7.40;99.90
20759;DHT22;10539;53.686;9.158;2023-01-09T09:56:25;7.40;99.90
20759;DHT22;10539;53.686;9.158;2023-01-09T09:59:02;7.40;99.90
20759;DHT22;10539;53.686;9.158;2023-01-09T10:01:40;7.40;99.90
20759;DHT22;10539;53.686;9.158;2023-01-09T10:04:14;7.40;99.90
20759;DHT22;10539;53.686;9.158;2023-01-09T10:06:46;7.50;99.90
20759;DHT22;10539;53.686;9.158;2023-01-09T10:09:40;7.50;99.90
20759;DHT22;10539;53.686;9.158;2023-01-09T10:12:30;7.50;99.90
20759;DHT22;10539;53.686;9.158;2023-01-09T10:14:58;7.50;99.90
20759;DHT22;10539;53.686;9.158;2023-01-09T10:29:07;7.80;99.90
20759;DHT22;10539;53.686;9.158;2023-01-09T10:32:10;7.80;99.90
20759;DHT22;10539;53.686;9.158;2023-01-09T10:37:39;7.90;99.90
20759;DHT22;10539;53.686;9.158;2023-01-09T10:40:13;7.90;99.90
20759;DHT22;10539;53.686;9.158;2023-01-09T10:42:42;7.90;99.90
20759;DHT22;10539;53.686;9.158;2023-01-09T10:47:41;7.90;99.90
20759;DHT22;10539;53.686;9.158;2023-01-09T10:50:21;7.90;99.90
20759;DHT22;10539;53.686;9.158;2023-01-09T10:52:53;7.90;99.90
20759;DHT22;10539;53.686;9.158;2023-01-09T10:55:31;8.00;99.90
20759;DHT22;10539;53.686;9.158;2023-01-09T10:58:01;8.10;99.90
20759;DHT22;10539;53.686;9.158;2023-01-09T11:00:28;8.20;99.90
20759;DHT22;10539;53.686;9.158;2023-01-09T11:02:54;8.20;99.90
20759;DHT22;10539;53.686;9.158;2023-01-09T11:05:26;8.20;99.90
20759;DHT22;10539;53.686;9.158;2023-01-09T11:07:57;8.20;99.90
20759;DHT22;10539;53.686;9.158;2023-01-09T11:10:44;8.20;99.90
20759;DHT22;10539;53.686;9.158;2023-01-09T11:13:24;8.30;99.90
20759;DHT22;10539;53.686;9.158;2023-01-09T11:18:53;8.40;99.90
20759;DHT22;10539;53.686;9.158;2023-01-09T11:23:53;8.40;99.90
20759;DHT22;10539;53.686;9.158;2023-01-09T11:26:24;8.40;99.90
20759;DHT22;10539;53.686;9.158;2023-01-09T11:29:10;8.50;99.90
20759;DHT22;10539;53.686;9.158;2023-01-09T11:31:37;8.50;99.90
20759;DHT22;10539;53.686;9.158;2023-01-09T11:34:03;8.50;99.90
20759;DHT22;10539;53.686;9.158;2023-01-09T11:36:29;8.50;99.90
20759;DHT22;10539;53.686;9.158;2023-01-09T11:38:57;8.60;99.90
20759;DHT22;10539;53.686;9.158;2023-01-09T11:41:25;8.60;99.90
20759;DHT22;10539;53.686;9.158;2023-01-09T11:43:56;8.50;99.90
20759;DHT22;10539;53.686;9.158;2023-01-09T11:46:37;8.50;99.90
20759;DHT22;10539;53.686;9.158;2023-01-09T11:51:37;8.50;99.90
20759;DHT22;10539;53.686;9.158;2023-01-09T11:56:31;8.40;99.90
20759;DHT22;10539;53.686;9.158;2023-01-09T11:58:58;8.40;99.90
20759;DHT22;10539;53.686;9.158;2023-01-09T12:01:41;8.50;99.90
20759;DHT22;10539;53.686;9.158;2023-01-09T12:04:53;8.50;99.90
20759;DHT22;10539;53.686;9.158;2023-01-09T12:12:58;8.50;99.90
20759;DHT22;10539;53.686;9.158;2023-01-09T12:21:23;8.50;99.90
20759;DHT22;10539;53.686;9.158;2023-01-09T12:35:48;8.60;99.90
20759;DHT22;10539;53.686;9.158;2023-01-09T12:38:46;8.60;99.90
20759;DHT22;10539;53.686;9.158;2023-01-09T12:44:03;8.60;99.90
20759;DHT22;10539;53.686;9.158;2023-01-09T12:46:56;8.60;99.90
20759;DHT22;10539;53.686;9.158;2023-01-09T12:49:38;8.70;99.90
20759;DHT22;10539;53.686;9.158;2023-01-09T12:57:57;8.70;99.90
20759;DHT22;10539;53.686;9.158;2023-01-09T13:00:39;8.70;99.90
20759;DHT22;10539;53.686;9.158;2023-01-09T13:05:45;8.70;99.90
20759;DHT22;10539;53.686;9.158;2023-01-09T13:10:52;8.70;99.90
20759;DHT22;10539;53.686;9.158;2023-01-09T13:13:44;8.80;99.90
20759;DHT22;10539;53.686;9.158;2023-01-09T13:16:16;8.80;99.90
20759;DHT22;10539;53.686;9.158;2023-01-09T13:18:47;8.80;99.90
20759;DHT22;10539;53.686;9.158;2023-01-09T13:21:14;8.70;99.90
20759;DHT22;10539;53.686;9.158;2023-01-09T13:24:14;8.70;99.90
20759;DHT22;10539;53.686;9.158;2023-01-09T13:26:55;8.70;99.90
20759;DHT22;10539;53.686;9.158;2023-01-09T13:29:26;8.70;99.90
20759;DHT22;10539;53.686;9.158;2023-01-09T13:34:39;8.60;99.90
20759;DHT22;10539;53.686;9.158;2023-01-09T13:37:20;8.60;99.90
20759;DHT22;10539;53.686;9.158;2023-01-09T13:39:57;8.60;99.90
20759;DHT22;10539;53.686;9.158;2023-01-09T13:42:24;8.60;99.90
20759;DHT22;10539;53.686;9.158;2023-01-09T13:45:27;8.60;99.90
20759;DHT22;10539;53.686;9.158;2023-01-09T13:50:44;8.70;99.90
20759;DHT22;10539;53.686;9.158;2023-01-09T13:58:29;8.80;99.90
20759;DHT22;10539;53.686;9.158;2023-01-09T14:01:04;8.80;99.90
20759;DHT22;10539;53.686;9.158;2023-01-09T14:03:32;8.80;99.90
20759;DHT22;10539;53.686;9.158;2023-01-09T14:08:28;8.80;99.90
20759;DHT22;10539;53.686;9.158;2023-01-09T14:11:01;8.80;99.90
20759;DHT22;10539;53.686;9.158;2023-01-09T14:13:30;8.80;99.90
20759;DHT22;10539;53.686;9.158;2023-01-09T14:18:37;8.80;99.90
20759;DHT22;10539;53.686;9.158;2023-01-09T14:21:09;8.80;99.90
20759;DHT22;10539;53.686;9.158;2023-01-09T14:23:45;8.80;99.90
20759;DHT22;10539;53.686;9.158;2023-01-09T14:26:20;8.80;99.90
20759;DHT22;10539;53.686;9.158;2023-01-09T14:28:46;8.90;99.90
20759;DHT22;10539;53.686;9.158;2023-01-09T14:31:29;8.90;99.90
20759;DHT22;10539;53.686;9.158;2023-01-09T14:34:27;8.90;99.90
20759;DHT22;10539;53.686;9.158;2023-01-09T14:36:58;8.90;99.90
20759;DHT22;10539;53.686;9.158;2023-01-09T14:39:28;8.90;99.90
20759;DHT22;10539;53.686;9.158;2023-01-09T14:42:00;8.90;99.90
20759;DHT22;10539;53.686;9.158;2023-01-09T14:52:52;8.90;99.90
20759;DHT22;10539;53.686;9.158;2023-01-09T14:55:25;9.00;99.90
20759;DHT22;10539;53.686;9.158;2023-01-09T14:57:52;8.90;99.90
20759;DHT22;10539;53.686;9.158;2023-01-09T15:00:21;8.90;99.90
20759;DHT22;10539;53.686;9.158;2023-01-09T15:02:47;8.90;99.90
20759;DHT22;10539;53.686;9.158;2023-01-09T15:05:19;8.90;99.90
20759;DHT22;10539;53.686;9.158;2023-01-09T15:07:51;8.90;99.90
20759;DHT22;10539;53.686;9.158;2023-01-09T15:10:23;8.90;99.90
20759;DHT22;10539;53.686;9.158;2023-01-09T15:12:52;8.80;99.90
20759;DHT22;10539;53.686;9.158;2023-01-09T15:15:20;8.80;99.90
20759;DHT22;10539;53.686;9.158;2023-01-09T15:18:06;8.80;99.90
20759;DHT22;10539;53.686;9.158;2023-01-09T15:20:35;8.80;99.90
20759;DHT22;10539;53.686;9.158;2023-01-09T15:23:01;8.70;99.90
20759;DHT22;10539;53.686;9.158;2023-01-09T15:25:32;8.70;99.90
20759;DHT22;10539;53.686;9.158;2023-01-09T15:28:00;8.70;99.90
20759;DHT22;10539;53.686;9.158;2023-01-09T15:32:55;8.70;99.90
20759;DHT22;10539;53.686;9.158;2023-01-09T15:35:22;8.70;99.90
20759;DHT22;10539;53.686;9.158;2023-01-09T15:37:51;8.70;99.90
20759;DHT22;10539;53.686;9.158;2023-01-09T15:40:20;8.70;99.90
20759;DHT22;10539;53.686;9.158;2023-01-09T15:42:51;8.70;99.90
20759;DHT22;10539;53.686;9.158;2023-01-09T15:45:38;8.70;99.90
20759;DHT22;10539;53.686;9.158;2023-01-09T15:48:24;8.70;99.90
20759;DHT22;10539;53.686;9.158;2023-01-09T15:51:08;8.70;99.90
20759;DHT22;10539;53.686;9.158;2023-01-09T15:53:45;8.70;99.90
20759;DHT22;10539;53.686;9.158;2023-01-09T15:56:20;8.80;99.90
20759;DHT22;10539;53.686;9.158;2023-01-09T15:58:53;8.80;99.90
20759;DHT22;10539;53.686;9.158;2023-01-09T16:03:45;8.70;99.90
20759;DHT22;10539;53.686;9.158;2023-01-09T16:06:22;8.70;99.90
20759;DHT22;10539;53.686;9.158;2023-01-09T16:08:49;8.70;99.90
20759;DHT22;10539;53.686;9.158;2023-01-09T16:11:23;8.70;99.90
20759;DHT22;10539;53.686;9.158;2023-01-09T16:13:49;8.70;99.90
20759;DHT22;10539;53.686;9.158;2023-01-09T16:16:28;8.70;99.90
20759;DHT22;10539;53.686;9.158;2023-01-09T16:18:56;8.70;99.90
20759;DHT22;10539;53.686;9.158;2023-01-09T16:26:27;8.70;99.90
20759;DHT22;10539;53.686;9.158;2023-01-09T16:28:54;8.60;99.90
20759;DHT22;10539;53.686;9.158;2023-01-09T16:31:28;8.60;99.90
20759;DHT22;10539;53.686;9.158;2023-01-09T16:34:02;8.60;99.90
20759;DHT22;10539;53.686;9.158;2023-01-09T16:36:29;8.60;99.90
20759;DHT22;10539;53.686;9.158;2023-01-09T16:38:55;8.60;99.90
20759;DHT22;10539;53.686;9.158;2023-01-09T16:41:22;8.60;99.90
20759;DHT22;10539;53.686;9.158;2023-01-09T16:44:08;8.60;99.90
20759;DHT22;10539;53.686;9.158;2023-01-09T16:46:36;8.60;99.90
20759;DHT22;10539;53.686;9.158;2023-01-09T16:49:05;8.60;99.90
20759;DHT22;10539;53.686;9.158;2023-01-09T16:51:37;8.50;99.90
20759;DHT22;10539;53.686;9.158;2023-01-09T16:54:03;8.50;99.90
20759;DHT22;10539;53.686;9.158;2023-01-09T16:56:29;8.50;99.90
20759;DHT22;10539;53.686;9.158;2023-01-09T16:58:55;8.50;99.90
20759;DHT22;10539;53.686;9.158;2023-01-09T17:01:21;8.50;99.90
20759;DHT22;10539;53.686;9.158;2023-01-09T17:03:48;8.50;99.90
20759;DHT22;10539;53.686;9.158;2023-01-09T17:06:25;8.50;99.90
20759;DHT22;10539;53.686;9.158;2023-01-09T17:08:52;8.50;99.90
20759;DHT22;10539;53.686;9.158;2023-01-09T17:11:21;8.50;99.90
20759;DHT22;10539;53.686;9.158;2023-01-09T17:13:47;8.40;99.90
20759;DHT22;10539;53.686;9.158;2023-01-09T17:16:14;8.40;99.90
20759;DHT22;10539;53.686;9.158;2023-01-09T17:18:41;8.40;99.90
20759;DHT22;10539;53.686;9.158;2023-01-09T17:21:34;8.30;99.90
20759;DHT22;10539;53.686;9.158;2023-01-09T17:23:59;8.30;99.90
20759;DHT22;10539;53.686;9.158;2023-01-09T17:26:48;8.30;99.90
20759;DHT22;10539;53.686;9.158;2023-01-09T17:29:34;8.20;99.90
20759;DHT22;10539;53.686;9.158;2023-01-09T17:32:00;8.20;99.90
20759;DHT22;10539;53.686;9.158;2023-01-09T17:34:26;8.20;99.90
20759;DHT22;10539;53.686;9.158;2023-01-09T17:36:51;8.20;99.90
20759;DHT22;10539;53.686;9.158;2023-01-09T17:39:20;8.10;99.90
20759;DHT22;10539;53.686;9.158;2023-01-09T17:41:47;8.10;99.90
20759;DHT22;10539;53.686;9.158;2023-01-09T17:44:13;8.10;99.90
20759;DHT22;10539;53.686;9.158;2023-01-09T17:46:41;8.10;99.90
20759;DHT22;10539;53.686;9.158;2023-01-09T17:49:14;8.20;99.90
20759;DHT22;10539;53.686;9.158;2023-01-09T17:51:39;8.20;99.90
20759;DHT22;10539;53.686;9.158;2023-01-09T17:54:05;8.20;99.90
20759;DHT22;10539;53.686;9.158;2023-01-09T17:56:33;8.20;99.90
20759;DHT22;10539;53.686;9.158;2023-01-09T17:59:01;8.30;99.90
20759;DHT22;10539;53.686;9.158;2023-01-09T18:01:27;8.30;99.90
20759;DHT22;10539;53.686;9.158;2023-01-09T18:03:53;8.30;99.90
20759;DHT22;10539;53.686;9.158;2023-01-09T18:06:20;8.30;99.90
20759;DHT22;10539;53.686;9.158;2023-01-09T18:08:46;8.30;99.90